sensor_id;sensor_type;location;lat;lon;timestamp;temperature;humidity
71879;DHT22;59755;43.834;4.364;2023-04-30T01:42:10;19.70;57.80
71879;DHT22;59755;43.834;4.364;2023-04-30T01:50:13;19.40;57.40
71879;DHT22;59755;43.834;4.364;2023-04-30T01:52:49;19.40;57.30
71879;DHT22;59755;43.834;4.364;2023-04-30T01:55:20;19.40;57.40
71879;DHT22;59755;43.834;4.364;2023-04-30T01:57:57;19.40;57.40
71879;DHT22;59755;43.834;4.364;2023-04-30T02:00:24;19.40;57.30
71879;DHT22;59755;43.834;4.364;2023-04-30T02:02:50;19.40;57.50
71879;DHT22;59755;43.834;4.364;2023-04-30T02:05:16;19.40;57.60
71879;DHT22;59755;43.834;4.364;2023-04-30T02:07:42;19.40;57.80
71879;DHT22;59755;43.834;4.364;2023-04-30T02:10:09;19.40;57.90
71879;DHT22;59755;43.834;4.364;2023-04-30T02:12:36;19.30;58.10
71879;DHT22;59755;43.834;4.364;2023-04-30T02:15:03;19.30;58.30
71879;DHT22;59755;43.834;4.364;2023-04-30T02:17:29;19.20;58.40
71879;DHT22;59755;43.834;4.364;2023-04-30T02:19:55;19.20;58.30
71879;DHT22;59755;43.834;4.364;2023-04-30T02:22:21;19.20;58.30
71879;DHT22;59755;43.834;4.364;2023-04-30T02:24:46;19.20;58.50
71879;DHT22;59755;43.834;4.364;2023-04-30T02:27:12;19.20;58.70
71879;DHT22;59755;43.834;4.364;2023-04-30T02:29:38;19.10;58.80
71879;DHT22;59755;43.834;4.364;2023-04-30T02:32:03;19.00;59.10
71879;DHT22;59755;43.834;4.364;2023-04-30T02:34:29;19.00;59.30
71879;DHT22;59755;43.834;4.364;2023-04-30T02:36:55;19.00;59.00
71879;DHT22;59755;43.834;4.364;2023-04-30T02:39:20;19.00;58.80
71879;DHT22;59755;43.834;4.364;2023-04-30T02:41:46;19.00;58.40
71879;DHT22;59755;43.834;4.364;2023-04-30T02:44:11;18.90;58.40
71879;DHT22;59755;43.834;4.364;2023-04-30T02:46:37;18.90;58.20
71879;DHT22;59755;43.834;4.364;2023-04-30T02:49:03;18.90;58.40
71879;DHT22;59755;43.834;4.364;2023-04-30T02:51:28;18.90;58.10
71879;DHT22;59755;43.834;4.364;2023-04-30T02:53:54;18.90;58.00
71879;DHT22;59755;43.834;4.364;2023-04-30T02:56:20;18.90;57.90
71879;DHT22;59755;43.834;4.364;2023-04-30T02:58:45;18.90;57.90
71879;DHT22;59755;43.834;4.364;2023-04-30T03:01:12;18.80;58.10
71879;DHT22;59755;43.834;4.364;2023-04-30T03:03:37;18.80;58.10
71879;DHT22;59755;43.834;4.364;2023-04-30T03:06:03;18.70;58.30
71879;DHT22;59755;43.834;4.364;2023-04-30T03:08:29;18.70;58.60
71879;DHT22;59755;43.834;4.364;2023-04-30T03:10:55;18.70;58.90
71879;DHT22;59755;43.834;4.364;2023-04-30T03:13:20;18.70;59.30
71879;DHT22;59755;43.834;4.364;2023-04-30T03:15:46;18.60;60.00
71879;DHT22;59755;43.834;4.364;2023-04-30T03:18:12;18.50;60.30
71879;DHT22;59755;43.834;4.364;2023-04-30T03:20:37;18.50;60.90
71879;DHT22;59755;43.834;4.364;2023-04-30T03:23:03;18.40;61.70
71879;DHT22;59755;43.834;4.364;2023-04-30T03:25:29;18.40;62.10
71879;DHT22;59755;43.834;4.364;2023-04-30T03:27:54;18.40;62.30
71879;DHT22;59755;43.834;4.364;2023-04-30T03:30:20;18.30;62.30
71879;DHT22;59755;43.834;4.364;2023-04-30T03:32:46;18.30;62.90
71879;DHT22;59755;43.834;4.364;2023-04-30T03:35:11;18.30;63.10
71879;DHT22;59755;43.834;4.364;2023-04-30T03:37:37;18.30;63.10
71879;DHT22;59755;43.834;4.364;2023-04-30T03:40:02;18.30;63.20
71879;DHT22;59755;43.834;4.364;2023-04-30T03:42:29;18.20;63.40
71879;DHT22;59755;43.834;4.364;2023-04-30T03:44:54;18.20;63.60
71879;DHT22;59755;43.834;4.364;2023-04-30T03:47:20;18.20;63.50
71879;DHT22;59755;43.834;4.364;2023-04-30T03:49:46;18.20;63.60
71879;DHT22;59755;43.834;4.364;2023-04-30T03:52:13;18.20;63.70
71879;DHT22;59755;43.834;4.364;2023-04-30T03:54:38;18.30;63.70
71879;DHT22;59755;43.834;4.364;2023-04-30T03:57:04;18.20;64.00
71879;DHT22;59755;43.834;4.364;2023-04-30T03:59:31;18.20;64.20
71879;DHT22;59755;43.834;4.364;2023-04-30T04:01:58;18.10;64.60
71879;DHT22;59755;43.834;4.364;2023-04-30T04:04:24;18.10;64.70
71879;DHT22;59755;43.834;4.364;2023-04-30T04:06:50;18.00;65.00
71879;DHT22;59755;43.834;4.364;2023-04-30T04:09:15;18.10;64.90
71879;DHT22;59755;43.834;4.364;2023-04-30T04:11:41;18.00;65.20
71879;DHT22;59755;43.834;4.364;2023-04-30T04:14:07;18.00;65.10
71879;DHT22;59755;43.834;4.364;2023-04-30T04:16:32;18.10;64.80
71879;DHT22;59755;43.834;4.364;2023-04-30T04:18:58;18.00;64.90
71879;DHT22;59755;43.834;4.364;2023-04-30T04:21:24;18.00;65.00
71879;DHT22;59755;43.834;4.364;2023-04-30T04:23:49;18.00;65.10
71879;DHT22;59755;43.834;4.364;2023-04-30T04:26:15;18.00;65.00
71879;DHT22;59755;43.834;4.364;2023-04-30T04:28:44;18.00;65.00
71879;DHT22;59755;43.834;4.364;2023-04-30T04:31:09;17.90;65.40
71879;DHT22;59755;43.834;4.364;2023-04-30T04:33:35;18.00;65.00
71879;DHT22;59755;43.834;4.364;2023-04-30T04:36:01;18.00;65.30
71879;DHT22;59755;43.834;4.364;2023-04-30T04:38:27;18.00;65.00
71879;DHT22;59755;43.834;4.364;2023-04-30T04:40:52;18.00;64.70
71879;DHT22;59755;43.834;4.364;2023-04-30T04:43:18;18.10;64.70
71879;DHT22;59755;43.834;4.364;2023-04-30T04:45:44;18.10;64.80
71879;DHT22;59755;43.834;4.364;2023-04-30T04:48:11;18.10;65.10
71879;DHT22;59755;43.834;4.364;2023-04-30T04:50:37;18.10;64.90
71879;DHT22;59755;43.834;4.364;2023-04-30T04:53:02;18.00;64.90
71879;DHT22;59755;43.834;4.364;2023-04-30T04:55:28;18.10;64.90
71879;DHT22;59755;43.834;4.364;2023-04-30T04:57:53;18.10;65.00
71879;DHT22;59755;43.834;4.364;2023-04-30T05:00:19;18.00;65.00
71879;DHT22;59755;43.834;4.364;2023-04-30T05:02:47;18.10;64.90
71879;DHT22;59755;43.834;4.364;2023-04-30T05:05:13;18.00;65.00
71879;DHT22;59755;43.834;4.364;2023-04-30T05:07:39;18.10;64.80
71879;DHT22;59755;43.834;4.364;2023-04-30T05:10:05;18.10;65.10
71879;DHT22;59755;43.834;4.364;2023-04-30T05:12:31;18.10;64.70
71879;DHT22;59755;43.834;4.364;2023-04-30T05:14:56;18.00;64.90
71879;DHT22;59755;43.834;4.364;2023-04-30T05:17:22;18.10;64.90
71879;DHT22;59755;43.834;4.364;2023-04-30T05:19:48;18.00;65.10
71879;DHT22;59755;43.834;4.364;2023-04-30T05:22:15;18.10;65.40
71879;DHT22;59755;43.834;4.364;2023-04-30T05:24:40;18.10;65.30
71879;DHT22;59755;43.834;4.364;2023-04-30T05:27:06;18.10;62.60
71879;DHT22;59755;43.834;4.364;2023-04-30T05:29:32;18.20;60.90
71879;DHT22;59755;43.834;4.364;2023-04-30T05:31:58;18.20;59.80
71879;DHT22;59755;43.834;4.364;2023-04-30T05:34:23;18.20;58.50
71879;DHT22;59755;43.834;4.364;2023-04-30T05:36:49;18.30;58.50
71879;DHT22;59755;43.834;4.364;2023-04-30T05:39:15;18.20;58.30
71879;DHT22;59755;43.834;4.364;2023-04-30T05:41:40;18.20;58.40
71879;DHT22;59755;43.834;4.364;2023-04-30T05:44:06;18.20;58.30
71879;DHT22;59755;43.834;4.364;2023-04-30T05:46:31;18.30;57.60
71879;DHT22;59755;43.834;4.364;2023-04-30T05:48:57;18.30;57.40
71879;DHT22;59755;43.834;4.364;2023-04-30T05:51:23;18.30;57.10
71879;DHT22;59755;43.834;4.364;2023-04-30T05:53:48;18.40;56.70
71879;DHT22;59755;43.834;4.364;2023-04-30T05:56:14;18.30;57.00
71879;DHT22;59755;43.834;4.364;2023-04-30T05:58:39;18.30;56.90
71879;DHT22;59755;43.834;4.364;2023-04-30T06:01:05;18.30;57.10
71879;DHT22;59755;43.834;4.364;2023-04-30T06:03:31;18.40;57.40
71879;DHT22;59755;43.834;4.364;2023-04-30T06:05:57;18.40;57.20
71879;DHT22;59755;43.834;4.364;2023-04-30T06:08:22;18.40;57.00
71879;DHT22;59755;43.834;4.364;2023-04-30T06:10:48;18.40;57.10
71879;DHT22;59755;43.834;4.364;2023-04-30T06:13:15;18.40;57.20
71879;DHT22;59755;43.834;4.364;2023-04-30T06:15:40;18.40;57.20
71879;DHT22;59755;43.834;4.364;2023-04-30T06:18:06;18.40;56.80
71879;DHT22;59755;43.834;4.364;2023-04-30T06:20:32;18.40;56.90
71879;DHT22;59755;43.834;4.364;2023-04-30T06:22:57;18.50;56.60
71879;DHT22;59755;43.834;4.364;2023-04-30T06:25:24;18.50;56.60
71879;DHT22;59755;43.834;4.364;2023-04-30T06:27:50;18.40;57.40
71879;DHT22;59755;43.834;4.364;2023-04-30T06:30:18;18.40;57.20
71879;DHT22;59755;43.834;4.364;2023-04-30T06:32:44;18.40;56.90
71879;DHT22;59755;43.834;4.364;2023-04-30T06:35:09;18.40;56.90
71879;DHT22;59755;43.834;4.364;2023-04-30T06:37:35;18.50;56.80
71879;DHT22;59755;43.834;4.364;2023-04-30T06:40:02;18.50;56.90
71879;DHT22;59755;43.834;4.364;2023-04-30T06:42:29;18.50;56.60
71879;DHT22;59755;43.834;4.364;2023-04-30T06:45:02;18.50;56.30
71879;DHT22;59755;43.834;4.364;2023-04-30T06:47:29;18.50;56.20
71879;DHT22;59755;43.834;4.364;2023-04-30T06:49:59;18.50;56.10
71879;DHT22;59755;43.834;4.364;2023-04-30T06:52:25;18.60;56.10
71879;DHT22;59755;43.834;4.364;2023-04-30T06:54:51;18.60;55.70
71879;DHT22;59755;43.834;4.364;2023-04-30T06:57:16;18.70;55.80
71879;DHT22;59755;43.834;4.364;2023-04-30T06:59:42;18.80;55.60
71879;DHT22;59755;43.834;4.364;2023-04-30T07:02:08;18.90;55.60
71879;DHT22;59755;43.834;4.364;2023-04-30T07:04:34;19.00;55.00
71879;DHT22;59755;43.834;4.364;2023-04-30T07:06:59;19.00;55.00
71879;DHT22;59755;43.834;4.364;2023-04-30T07:09:27;19.10;54.70
71879;DHT22;59755;43.834;4.364;2023-04-30T07:11:53;19.10;54.20
71879;DHT22;59755;43.834;4.364;2023-04-30T07:14:19;19.00;54.40
71879;DHT22;59755;43.834;4.364;2023-04-30T07:16:45;19.00;54.60
71879;DHT22;59755;43.834;4.364;2023-04-30T07:19:11;19.00;54.50
71879;DHT22;59755;43.834;4.364;2023-04-30T07:21:36;18.90;54.70
71879;DHT22;59755;43.834;4.364;2023-04-30T07:24:02;18.80;55.00
71879;DHT22;59755;43.834;4.364;2023-04-30T07:26:28;18.90;55.00
71879;DHT22;59755;43.834;4.364;2023-04-30T07:28:53;18.90;55.00
71879;DHT22;59755;43.834;4.364;2023-04-30T07:31:19;18.90;55.00
71879;DHT22;59755;43.834;4.364;2023-04-30T07:33:45;19.00;54.60
71879;DHT22;59755;43.834;4.364;2023-04-30T07:36:11;19.00;54.70
71879;DHT22;59755;43.834;4.364;2023-04-30T07:38:36;19.00;54.50
71879;DHT22;59755;43.834;4.364;2023-04-30T07:41:02;19.00;54.90
71879;DHT22;59755;43.834;4.364;2023-04-30T07:43:28;19.00;54.50
71879;DHT22;59755;43.834;4.364;2023-04-30T07:45:55;19.10;54.60
71879;DHT22;59755;43.834;4.364;2023-04-30T07:48:20;19.20;54.40
71879;DHT22;59755;43.834;4.364;2023-04-30T07:50:47;19.30;54.30
71879;DHT22;59755;43.834;4.364;2023-04-30T07:53:12;19.40;54.20
71879;DHT22;59755;43.834;4.364;2023-04-30T07:55:38;19.60;53.90
71879;DHT22;59755;43.834;4.364;2023-04-30T07:58:03;19.60;53.60
71879;DHT22;59755;43.834;4.364;2023-04-30T08:00:29;19.60;53.20
71879;DHT22;59755;43.834;4.364;2023-04-30T08:02:55;19.60;53.10
71879;DHT22;59755;43.834;4.364;2023-04-30T08:05:21;19.70;53.20
71879;DHT22;59755;43.834;4.364;2023-04-30T08:07:46;19.70;53.10
71879;DHT22;59755;43.834;4.364;2023-04-30T08:10:12;19.60;53.10
71879;DHT22;59755;43.834;4.364;2023-04-30T08:12:38;19.70;53.10
71879;DHT22;59755;43.834;4.364;2023-04-30T08:15:04;19.70;53.30
71879;DHT22;59755;43.834;4.364;2023-04-30T08:17:32;19.80;53.40
71879;DHT22;59755;43.834;4.364;2023-04-30T08:19:59;19.90;52.80
71879;DHT22;59755;43.834;4.364;2023-04-30T08:22:24;20.00;52.80
71879;DHT22;59755;43.834;4.364;2023-04-30T08:24:50;20.00;52.70
71879;DHT22;59755;43.834;4.364;2023-04-30T08:27:15;20.10;52.50
71879;DHT22;59755;43.834;4.364;2023-04-30T08:29:41;20.10;52.60
71879;DHT22;59755;43.834;4.364;2023-04-30T08:32:07;20.30;52.30
71879;DHT22;59755;43.834;4.364;2023-04-30T08:34:33;20.30;52.00
71879;DHT22;59755;43.834;4.364;2023-04-30T08:36:59;20.30;51.80
71879;DHT22;59755;43.834;4.364;2023-04-30T08:39:25;20.20;52.10
71879;DHT22;59755;43.834;4.364;2023-04-30T08:41:53;20.30;51.60
71879;DHT22;59755;43.834;4.364;2023-04-30T08:44:23;20.40;51.90
71879;DHT22;59755;43.834;4.364;2023-04-30T08:46:51;20.40;51.70
71879;DHT22;59755;43.834;4.364;2023-04-30T08:49:18;20.40;51.80
71879;DHT22;59755;43.834;4.364;2023-04-30T08:51:44;20.60;51.60
71879;DHT22;59755;43.834;4.364;2023-04-30T08:54:11;20.80;51.60
71879;DHT22;59755;43.834;4.364;2023-04-30T08:56:37;20.80;51.50
71879;DHT22;59755;43.834;4.364;2023-04-30T08:59:02;21.00;51.20
71879;DHT22;59755;43.834;4.364;2023-04-30T09:01:28;21.30;50.80
71879;DHT22;59755;43.834;4.364;2023-04-30T09:03:54;21.50;50.20
71879;DHT22;59755;43.834;4.364;2023-04-30T09:06:20;21.60;49.90
71879;DHT22;59755;43.834;4.364;2023-04-30T09:08:47;21.70;48.90
71879;DHT22;59755;43.834;4.364;2023-04-30T09:11:26;21.60;48.90
71879;DHT22;59755;43.834;4.364;2023-04-30T09:13:59;21.50;49.20
71879;DHT22;59755;43.834;4.364;2023-04-30T09:16:26;21.60;49.50
71879;DHT22;59755;43.834;4.364;2023-04-30T09:18:52;21.80;49.00
71879;DHT22;59755;43.834;4.364;2023-04-30T09:21:31;21.90;48.70
71879;DHT22;59755;43.834;4.364;2023-04-30T09:23:58;21.80;48.90
71879;DHT22;59755;43.834;4.364;2023-04-30T09:26:29;21.80;48.60
71879;DHT22;59755;43.834;4.364;2023-04-30T09:28:56;21.80;48.30
71879;DHT22;59755;43.834;4.364;2023-04-30T09:31:22;21.90;48.50
71879;DHT22;59755;43.834;4.364;2023-04-30T09:33:48;22.00;48.20
71879;DHT22;59755;43.834;4.364;2023-04-30T09:36:14;22.30;47.80
71879;DHT22;59755;43.834;4.364;2023-04-30T09:38:40;22.40;47.50
71879;DHT22;59755;43.834;4.364;2023-04-30T09:41:06;22.60;46.70
71879;DHT22;59755;43.834;4.364;2023-04-30T09:43:45;22.80;46.60
71879;DHT22;59755;43.834;4.364;2023-04-30T09:46:10;22.70;46.80
71879;DHT22;59755;43.834;4.364;2023-04-30T09:48:36;22.70;46.60
71879;DHT22;59755;43.834;4.364;2023-04-30T09:51:05;22.50;46.30
71879;DHT22;59755;43.834;4.364;2023-04-30T09:53:31;22.40;47.10
71879;DHT22;59755;43.834;4.364;2023-04-30T09:55:57;22.20;47.20
71879;DHT22;59755;43.834;4.364;2023-04-30T09:58:26;22.30;47.40
71879;DHT22;59755;43.834;4.364;2023-04-30T10:00:52;22.50;47.10
71879;DHT22;59755;43.834;4.364;2023-04-30T10:03:18;22.60;46.60
71879;DHT22;59755;43.834;4.364;2023-04-30T10:05:46;22.90;46.50
71879;DHT22;59755;43.834;4.364;2023-04-30T10:08:14;22.90;46.50
71879;DHT22;59755;43.834;4.364;2023-04-30T10:10:42;23.10;45.20
71879;DHT22;59755;43.834;4.364;2023-04-30T10:13:09;23.00;45.80
71879;DHT22;59755;43.834;4.364;2023-04-30T10:15:38;23.20;45.90
71879;DHT22;59755;43.834;4.364;2023-04-30T10:18:06;23.40;44.80
71879;DHT22;59755;43.834;4.364;2023-04-30T10:20:34;23.40;44.70
71879;DHT22;59755;43.834;4.364;2023-04-30T10:23:01;23.50;44.60
71879;DHT22;59755;43.834;4.364;2023-04-30T10:25:27;23.60;44.30
71879;DHT22;59755;43.834;4.364;2023-04-30T10:27:53;23.80;43.70
71879;DHT22;59755;43.834;4.364;2023-04-30T10:30:19;24.20;42.50
71879;DHT22;59755;43.834;4.364;2023-04-30T10:33:33;24.60;41.50
71879;DHT22;59755;43.834;4.364;2023-04-30T10:35:46;24.70;41.20
71879;DHT22;59755;43.834;4.364;2023-04-30T10:38:21;24.70;41.60
71879;DHT22;59755;43.834;4.364;2023-04-30T10:40:47;24.60;41.40
71879;DHT22;59755;43.834;4.364;2023-04-30T10:43:13;25.20;40.70
71879;DHT22;59755;43.834;4.364;2023-04-30T10:45:40;25.90;39.30
71879;DHT22;59755;43.834;4.364;2023-04-30T10:48:07;25.60;38.30
71879;DHT22;59755;43.834;4.364;2023-04-30T10:50:43;26.00;37.60
71879;DHT22;59755;43.834;4.364;2023-04-30T10:53:12;26.70;36.20
71879;DHT22;59755;43.834;4.364;2023-04-30T10:55:47;27.20;35.90
71879;DHT22;59755;43.834;4.364;2023-04-30T10:58:23;27.50;35.80
71879;DHT22;59755;43.834;4.364;2023-04-30T11:03:27;29.00;33.70
71879;DHT22;59755;43.834;4.364;2023-04-30T11:05:53;29.50;33.40
71879;DHT22;59755;43.834;4.364;2023-04-30T11:08:18;30.50;31.70
71879;DHT22;59755;43.834;4.364;2023-04-30T11:10:56;30.20;31.90
71879;DHT22;59755;43.834;4.364;2023-04-30T11:13:23;30.10;31.90
71879;DHT22;59755;43.834;4.364;2023-04-30T11:15:50;30.50;31.50
71879;DHT22;59755;43.834;4.364;2023-04-30T11:18:16;30.80;30.90
71879;DHT22;59755;43.834;4.364;2023-04-30T11:20:49;31.20;30.30
71879;DHT22;59755;43.834;4.364;2023-04-30T11:23:16;31.60;29.80
71879;DHT22;59755;43.834;4.364;2023-04-30T11:25:43;32.30;29.10
71879;DHT22;59755;43.834;4.364;2023-04-30T11:28:27;32.20;28.80
71879;DHT22;59755;43.834;4.364;2023-04-30T11:33:18;31.90;29.00
71879;DHT22;59755;43.834;4.364;2023-04-30T11:35:44;31.10;30.00
71879;DHT22;59755;43.834;4.364;2023-04-30T11:38:13;31.30;30.00
71879;DHT22;59755;43.834;4.364;2023-04-30T11:40:39;32.00;28.70
71879;DHT22;59755;43.834;4.364;2023-04-30T11:43:05;32.90;28.10
71879;DHT22;59755;43.834;4.364;2023-04-30T11:45:31;33.50;27.80
71879;DHT22;59755;43.834;4.364;2023-04-30T11:47:57;33.00;28.00
71879;DHT22;59755;43.834;4.364;2023-04-30T11:50:23;33.50;27.50
71879;DHT22;59755;43.834;4.364;2023-04-30T11:52:54;33.70;27.40
71879;DHT22;59755;43.834;4.364;2023-04-30T11:57:46;34.90;26.30
71879;DHT22;59755;43.834;4.364;2023-04-30T12:00:14;34.20;26.60
71879;DHT22;59755;43.834;4.364;2023-04-30T12:02:44;34.60;26.30
71879;DHT22;59755;43.834;4.364;2023-04-30T12:07:43;35.10;25.80
71879;DHT22;59755;43.834;4.364;2023-04-30T12:10:13;34.70;25.90
71879;DHT22;59755;43.834;4.364;2023-04-30T12:12:39;34.50;26.10
71879;DHT22;59755;43.834;4.364;2023-04-30T12:15:14;34.40;26.30
71879;DHT22;59755;43.834;4.364;2023-04-30T12:17:41;34.80;25.80
71879;DHT22;59755;43.834;4.364;2023-04-30T12:20:07;35.10;25.40
71879;DHT22;59755;43.834;4.364;2023-04-30T12:22:33;34.70;25.60
71879;DHT22;59755;43.834;4.364;2023-04-30T12:25:05;35.10;25.30
71879;DHT22;59755;43.834;4.364;2023-04-30T12:27:31;34.80;25.60
71879;DHT22;59755;43.834;4.364;2023-04-30T12:30:00;35.60;25.00
71879;DHT22;59755;43.834;4.364;2023-04-30T12:32:26;35.60;24.80
71879;DHT22;59755;43.834;4.364;2023-04-30T12:34:56;35.30;24.90
71879;DHT22;59755;43.834;4.364;2023-04-30T12:37:25;35.30;25.10
71879;DHT22;59755;43.834;4.364;2023-04-30T12:39:50;35.50;25.20
71879;DHT22;59755;43.834;4.364;2023-04-30T12:42:19;35.30;25.00
71879;DHT22;59755;43.834;4.364;2023-04-30T12:44:45;35.70;24.70
71879;DHT22;59755;43.834;4.364;2023-04-30T12:47:11;36.40;24.10
71879;DHT22;59755;43.834;4.364;2023-04-30T12:49:38;35.90;24.40
71879;DHT22;59755;43.834;4.364;2023-04-30T12:52:05;36.70;23.40
71879;DHT22;59755;43.834;4.364;2023-04-30T12:54:34;35.80;24.30
71879;DHT22;59755;43.834;4.364;2023-04-30T12:57:07;36.00;24.40
71879;DHT22;59755;43.834;4.364;2023-04-30T12:59:35;36.00;24.00
71879;DHT22;59755;43.834;4.364;2023-04-30T13:02:21;36.70;23.50
71879;DHT22;59755;43.834;4.364;2023-04-30T13:04:48;36.50;22.90
71879;DHT22;59755;43.834;4.364;2023-04-30T13:07:13;36.70;23.00
71879;DHT22;59755;43.834;4.364;2023-04-30T13:09:39;37.00;22.70
71879;DHT22;59755;43.834;4.364;2023-04-30T13:12:05;36.70;22.90
71879;DHT22;59755;43.834;4.364;2023-04-30T13:14:31;37.00;22.90
71879;DHT22;59755;43.834;4.364;2023-04-30T13:16:57;37.10;23.00
71879;DHT22;59755;43.834;4.364;2023-04-30T13:19:23;36.80;23.00
71879;DHT22;59755;43.834;4.364;2023-04-30T13:21:48;37.20;22.80
71879;DHT22;59755;43.834;4.364;2023-04-30T13:24:14;37.10;22.70
71879;DHT22;59755;43.834;4.364;2023-04-30T13:26:42;36.90;23.00
71879;DHT22;59755;43.834;4.364;2023-04-30T13:29:07;37.00;23.00
71879;DHT22;59755;43.834;4.364;2023-04-30T13:31:33;36.90;23.10
71879;DHT22;59755;43.834;4.364;2023-04-30T13:33:59;36.50;23.10
71879;DHT22;59755;43.834;4.364;2023-04-30T13:36:25;36.60;22.90
71879;DHT22;59755;43.834;4.364;2023-04-30T13:38:52;36.30;23.30
71879;DHT22;59755;43.834;4.364;2023-04-30T13:41:18;37.00;22.80
71879;DHT22;59755;43.834;4.364;2023-04-30T13:43:45;37.60;22.50
71879;DHT22;59755;43.834;4.364;2023-04-30T13:46:11;37.90;22.30
71879;DHT22;59755;43.834;4.364;2023-04-30T13:48:37;37.30;22.30
71879;DHT22;59755;43.834;4.364;2023-04-30T13:51:03;36.70;23.10
71879;DHT22;59755;43.834;4.364;2023-04-30T13:53:29;36.50;23.10
71879;DHT22;59755;43.834;4.364;2023-04-30T13:55:54;36.90;22.60
71879;DHT22;59755;43.834;4.364;2023-04-30T13:58:20;37.10;22.70
71879;DHT22;59755;43.834;4.364;2023-04-30T14:00:46;36.40;22.90
71879;DHT22;59755;43.834;4.364;2023-04-30T14:03:12;36.00;23.50
71879;DHT22;59755;43.834;4.364;2023-04-30T14:05:38;37.40;22.50
71879;DHT22;59755;43.834;4.364;2023-04-30T14:08:06;37.10;22.60
71879;DHT22;59755;43.834;4.364;2023-04-30T14:10:31;37.20;22.70
71879;DHT22;59755;43.834;4.364;2023-04-30T14:12:57;37.40;22.60
71879;DHT22;59755;43.834;4.364;2023-04-30T14:15:23;36.70;23.00
71879;DHT22;59755;43.834;4.364;2023-04-30T14:17:49;37.20;22.70
71879;DHT22;59755;43.834;4.364;2023-04-30T14:20:14;36.90;22.80
71879;DHT22;59755;43.834;4.364;2023-04-30T14:22:40;36.70;22.80
71879;DHT22;59755;43.834;4.364;2023-04-30T14:25:06;36.90;22.70
71879;DHT22;59755;43.834;4.364;2023-04-30T14:27:32;36.60;22.90
71879;DHT22;59755;43.834;4.364;2023-04-30T14:29:57;36.60;22.90
71879;DHT22;59755;43.834;4.364;2023-04-30T14:32:24;36.50;23.00
71879;DHT22;59755;43.834;4.364;2023-04-30T14:34:49;36.20;23.20
71879;DHT22;59755;43.834;4.364;2023-04-30T14:37:15;36.00;23.50
71879;DHT22;59755;43.834;4.364;2023-04-30T14:39:41;34.90;24.30
71879;DHT22;59755;43.834;4.364;2023-04-30T14:42:07;33.70;25.10
71879;DHT22;59755;43.834;4.364;2023-04-30T14:44:33;31.80;26.70
71879;DHT22;59755;43.834;4.364;2023-04-30T14:46:58;30.90;27.60
71879;DHT22;59755;43.834;4.364;2023-04-30T14:49:25;30.20;28.60
71879;DHT22;59755;43.834;4.364;2023-04-30T14:51:50;29.30;29.60
71879;DHT22;59755;43.834;4.364;2023-04-30T14:54:16;28.60;30.80
71879;DHT22;59755;43.834;4.364;2023-04-30T14:56:42;28.40;31.00
71879;DHT22;59755;43.834;4.364;2023-04-30T14:59:09;28.00;31.60
71879;DHT22;59755;43.834;4.364;2023-04-30T15:01:34;27.70;32.40
71879;DHT22;59755;43.834;4.364;2023-04-30T15:04:00;27.90;32.30
71879;DHT22;59755;43.834;4.364;2023-04-30T15:06:26;27.90;32.20
71879;DHT22;59755;43.834;4.364;2023-04-30T15:08:52;27.80;32.30
71879;DHT22;59755;43.834;4.364;2023-04-30T15:11:17;27.80;32.70
71879;DHT22;59755;43.834;4.364;2023-04-30T15:13:43;27.70;32.40
71879;DHT22;59755;43.834;4.364;2023-04-30T15:16:09;27.60;32.70
71879;DHT22;59755;43.834;4.364;2023-04-30T15:18:35;27.30;33.20
71879;DHT22;59755;43.834;4.364;2023-04-30T15:21:01;27.20;33.80
71879;DHT22;59755;43.834;4.364;2023-04-30T15:23:27;27.00;34.30
71879;DHT22;59755;43.834;4.364;2023-04-30T15:25:53;26.90;34.00
71879;DHT22;59755;43.834;4.364;2023-04-30T15:28:18;26.80;34.20
71879;DHT22;59755;43.834;4.364;2023-04-30T15:30:44;26.50;34.80
71879;DHT22;59755;43.834;4.364;2023-04-30T15:33:10;26.20;35.00
71879;DHT22;59755;43.834;4.364;2023-04-30T15:35:37;26.20;35.40
71879;DHT22;59755;43.834;4.364;2023-04-30T15:38:02;25.80;40.00
71879;DHT22;59755;43.834;4.364;2023-04-30T15:40:28;25.60;42.60
71879;DHT22;59755;43.834;4.364;2023-04-30T15:42:53;25.20;45.80
71879;DHT22;59755;43.834;4.364;2023-04-30T15:45:19;25.10;46.80
71879;DHT22;59755;43.834;4.364;2023-04-30T15:47:45;25.10;46.50
71879;DHT22;59755;43.834;4.364;2023-04-30T15:50:11;25.10;46.50
71879;DHT22;59755;43.834;4.364;2023-04-30T15:52:36;25.30;46.80
71879;DHT22;59755;43.834;4.364;2023-04-30T15:55:02;25.10;47.60
71879;DHT22;59755;43.834;4.364;2023-04-30T15:57:28;24.70;48.50
71879;DHT22;59755;43.834;4.364;2023-04-30T15:59:53;24.40;49.50
71879;DHT22;59755;43.834;4.364;2023-04-30T16:02:19;24.20;50.10
71879;DHT22;59755;43.834;4.364;2023-04-30T16:04:45;24.20;50.00
71879;DHT22;59755;43.834;4.364;2023-04-30T16:07:10;24.00;50.10
71879;DHT22;59755;43.834;4.364;2023-04-30T16:09:36;23.80;48.80
71879;DHT22;59755;43.834;4.364;2023-04-30T16:12:02;23.60;49.20
71879;DHT22;59755;43.834;4.364;2023-04-30T16:14:28;23.70;46.90
71879;DHT22;59755;43.834;4.364;2023-04-30T16:16:55;23.60;46.50
71879;DHT22;59755;43.834;4.364;2023-04-30T16:19:21;23.60;46.70
71879;DHT22;59755;43.834;4.364;2023-04-30T16:21:46;23.60;47.30
71879;DHT22;59755;43.834;4.364;2023-04-30T16:24:12;23.60;47.50
71879;DHT22;59755;43.834;4.364;2023-04-30T16:26:40;23.60;48.10
71879;DHT22;59755;43.834;4.364;2023-04-30T16:29:06;23.40;48.30
71879;DHT22;59755;43.834;4.364;2023-04-30T16:31:31;23.30;48.50
71879;DHT22;59755;43.834;4.364;2023-04-30T16:33:57;23.20;48.30
71879;DHT22;59755;43.834;4.364;2023-04-30T16:36:23;23.20;48.50
71879;DHT22;59755;43.834;4.364;2023-04-30T16:38:48;23.10;48.80
71879;DHT22;59755;43.834;4.364;2023-04-30T16:41:14;23.10;48.20
71879;DHT22;59755;43.834;4.364;2023-04-30T16:43:40;23.20;48.50
71879;DHT22;59755;43.834;4.364;2023-04-30T16:46:07;23.20;50.10
71879;DHT22;59755;43.834;4.364;2023-04-30T16:48:33;23.20;50.30
71879;DHT22;59755;43.834;4.364;2023-04-30T16:50:58;23.30;49.80
71879;DHT22;59755;43.834;4.364;2023-04-30T16:53:24;23.30;48.90
71879;DHT22;59755;43.834;4.364;2023-04-30T16:55:50;23.30;48.70
71879;DHT22;59755;43.834;4.364;2023-04-30T16:58:19;23.50;48.60
71879;DHT22;59755;43.834;4.364;2023-04-30T17:00:45;23.50;47.60
71879;DHT22;59755;43.834;4.364;2023-04-30T17:03:10;23.50;48.10
71879;DHT22;59755;43.834;4.364;2023-04-30T17:05:36;23.50;47.00
71879;DHT22;59755;43.834;4.364;2023-04-30T17:08:02;23.60;47.00
71879;DHT22;59755;43.834;4.364;2023-04-30T17:10:27;23.50;45.90
71879;DHT22;59755;43.834;4.364;2023-04-30T17:12:55;23.40;46.10
71879;DHT22;59755;43.834;4.364;2023-04-30T17:15:24;23.40;45.60
71879;DHT22;59755;43.834;4.364;2023-04-30T17:17:50;23.40;45.10
71879;DHT22;59755;43.834;4.364;2023-04-30T17:20:15;23.20;45.20
71879;DHT22;59755;43.834;4.364;2023-04-30T17:22:41;23.30;43.70